Etusivu
METAR-TAF:

METAR-TAF

Lentoasemat :

Brasília, Distrito Federal, Brasilia

Leveyspiiri: 15-52S, Pituuspiiri: 047-56W, korkeus merenpinnasta: 1061 m

Tämänhetkinen sää

Tämä raportti tehtiin 42 minuuttia sitten, kello 00.00 UTC
Tuuli 6 kn idästä/kaakosta
Lämpötila 19°C
Kosteus 40%
Ilmanpaine 1023 hPa
Näkyvyys 10 km tai enemmän
ei pilviä alle 1500 m:ssä eikä cumulonimbus-pilviä

METAR: SBBR 230000Z 11006KT CAVOK 19/05 Q1023

Aika: 21:42 (00:42 UTC)

Sääennuste

Tämä raportti tehtiin 4 tuntia ja 42 minuuttia sitten, kello 20.00 UTC
Ennuste voimassa 23. päivästä klo 00 UTC - 23. päivään klo 24 UTC
Tuuli 7 kn idästä
Näkyvyys 10 km tai enemmän
ei pilviä alle 1500 m:ssä eikä cumulonimbus-pilviä
Tulossa
23. päivästä klo 10 UTC - 23. päivään klo 12 UTC
Tuuli 10 kn idästä
Tulossa
23. päivästä klo 18 UTC - 23. päivään klo 20 UTC
Tuuli 5 kn idästä

TAF: SBBR 222000Z 2300/2324 10007KT CAVOK TN13/2310Z TX26/2317Z BECMG 2310/2312 08010KT BECMG 2318/2320 09005KT RMK PDC

Säähavainnot ja -ennusteet yli 4000 lentoasemalta (METAR- ja TAF-raportit).

Käytössä olevat sääasemat on merkitty karttaan keltaisilla ja punaisilla pisteillä.

Aseta hiiri pisteen päälle nähdäksesi sääaseman nimen.

Klikkaa sitten nähdäksesi säähavainnot ja -ennusteet.

Kartan vaihtaminen: klikkaa mustalla rastilla varustettuja vihreitä pisteitä, niin voit zoomata sisään; viivalla varustettua vihreää pistettä, niin voit zoomata ulos tai vihreitä nuolia, niin pääset viereisille kartoille.


METAR-TAF: